createdAt,value
2022-09-29T03:18:59.536Z,97275.66
2022-09-29T03:22:09.477Z,97280.31
2022-09-29T03:25:19.261Z,97281.44
2022-09-29T03:28:29.085Z,97271.25
2022-09-29T03:31:41.898Z,97281.66
2022-09-29T03:34:53.000Z,97276.34
2022-09-29T03:38:03.023Z,97276.34
2022-09-29T03:41:12.913Z,97275.69
2022-09-29T03:44:22.754Z,97269.72
2022-09-29T03:47:32.791Z,97269.25
2022-09-29T03:50:44.056Z,97275.03
2022-09-29T03:53:55.143Z,97286.06
2022-09-29T03:57:04.943Z,97272.34
2022-09-29T04:00:15.689Z,97289.16
2022-09-29T04:03:25.458Z,97290.50
2022-09-29T04:06:36.635Z,97297.13
2022-09-29T04:09:49.462Z,97288.75
2022-09-29T04:13:00.238Z,97290.28
2022-09-29T04:16:10.135Z,97290.50
2022-09-29T04:19:20.150Z,97290.94
2022-09-29T04:22:31.434Z,97300.00
2022-09-29T04:25:41.282Z,97299.13
2022-09-29T04:28:51.080Z,97297.38
2022-09-29T04:32:00.951Z,97295.78
2022-09-29T04:35:11.247Z,97295.03
2022-09-29T04:38:22.306Z,97293.50
2022-09-29T04:41:34.842Z,97297.25
2022-09-29T04:44:44.617Z,97299.34
2022-09-29T04:47:54.399Z,97298.66
2022-09-29T04:51:05.449Z,97303.75
2022-09-29T04:54:17.567Z,97297.78
2022-09-29T04:57:27.372Z,97296.91
2022-09-29T05:00:37.174Z,97302.00
2022-09-29T07:02:47.664Z,97355.53
2022-09-29T07:06:18.339Z,97358.72
2022-09-29T07:09:27.783Z,97360.81
2022-09-29T07:12:37.632Z,97367.97
2022-09-29T07:15:48.138Z,97366.00
2022-09-29T07:18:59.373Z,97363.47
2022-09-29T07:22:34.156Z,97361.41
2022-09-29T07:25:52.425Z,97364.47
2022-09-29T07:29:02.339Z,97361.22
2022-09-29T07:32:22.799Z,97363.97
2022-09-29T07:35:39.954Z,97367.41
2022-09-29T07:38:51.909Z,97364.81
2022-09-29T07:42:01.623Z,97362.03
2022-09-29T07:45:11.327Z,97359.34
2022-09-29T07:48:20.951Z,97372.16
2022-09-29T07:51:32.791Z,97370.00
2022-09-29T07:54:42.405Z,97365.94
2022-09-29T07:57:52.096Z,97369.78
2022-09-29T08:01:04.235Z,97371.63
2022-09-29T08:04:13.923Z,97361.72
2022-09-29T08:07:24.840Z,97367.38
2022-09-29T08:10:43.482Z,97367.28
2022-09-29T08:13:54.199Z,97370.72
2022-09-29T08:17:03.925Z,97369.78
2022-09-29T08:20:13.967Z,97370.75
2022-09-29T08:23:25.250Z,97379.03
2022-09-29T08:26:43.403Z,97375.66
2022-09-29T08:29:54.298Z,97379.75
2022-09-29T08:33:04.260Z,97390.19
2022-09-29T08:36:15.427Z,97392.25
2022-09-29T08:39:26.315Z,97389.78
2022-09-29T08:42:48.952Z,97397.63
2022-09-29T08:46:03.350Z,97400.59
2022-09-29T08:49:29.856Z,97394.69
2022-09-29T08:52:51.857Z,97405.56
2022-09-29T08:56:05.782Z,97399.81
2022-09-29T08:59:15.322Z,97396.69
2022-09-29T09:02:55.847Z,97398.44
2022-09-29T09:06:18.974Z,97394.84
2022-09-29T09:09:47.173Z,97394.41
2022-09-29T09:13:14.661Z,97398.94
2022-09-29T09:16:34.829Z,97401.69
2022-09-29T09:20:01.014Z,97407.91
2022-09-29T09:23:21.194Z,97410.09
2022-09-29T09:26:38.870Z,97407.50
2022-09-29T09:29:54.755Z,97410.28
2022-09-29T09:33:21.391Z,97410.16
2022-09-29T09:36:40.514Z,97417.22
2022-09-29T09:39:57.712Z,97417.03
2022-09-29T09:43:13.213Z,97422.19
2022-09-29T09:46:33.839Z,97413.72
2022-09-29T09:49:50.867Z,97415.69
2022-09-29T09:53:04.281Z,97415.47
2022-09-29T09:56:23.413Z,97421.81
2022-09-29T09:59:44.483Z,97413.69
2022-09-29T10:02:57.180Z,97411.91
2022-09-29T10:06:08.260Z,97413.13
2022-09-29T10:09:18.102Z,97404.13
2022-09-29T10:12:27.759Z,97402.59
2022-09-29T10:15:43.308Z,97410.53
2022-09-29T10:18:54.188Z,97403.97
2022-09-29T10:22:14.370Z,97407.88
2022-09-29T10:25:25.218Z,97413.78
2022-09-29T10:28:42.834Z,97419.13
2022-09-29T10:32:08.326Z,97416.34
2022-09-29T10:35:24.400Z,97418.97
2022-09-29T10:38:34.293Z,97413.22
2022-09-29T10:41:54.722Z,97413.28
2022-09-29T10:45:14.177Z,97415.22
2022-09-29T10:48:24.002Z,97409.09
2022-09-29T10:51:34.944Z,97406.34
2022-09-29T10:54:55.590Z,97413.19
2022-09-29T10:58:43.894Z,97421.00
2022-09-29T11:01:52.449Z,97419.06
2022-09-29T11:05:05.344Z,97422.03
2022-09-29T11:08:16.298Z,97422.03
2022-09-29T11:11:28.292Z,97430.97
2022-09-29T11:14:42.907Z,97427.19
2022-09-29T11:17:53.549Z,97429.66
2022-09-29T11:21:30.021Z,97426.84
2022-09-29T11:24:57.876Z,97422.47
2022-09-29T11:28:25.404Z,97438.44
2022-09-29T11:31:46.508Z,97436.81
2022-09-29T11:35:08.444Z,97437.00
2022-09-29T11:38:32.385Z,97435.53
2022-09-29T11:41:59.626Z,97437.03
2022-09-29T11:45:15.288Z,97439.50
2022-09-29T11:48:48.643Z,97441.06
2022-09-29T11:52:10.996Z,97431.06
2022-09-29T11:55:35.088Z,97442.13
2022-09-29T11:59:00.322Z,97439.47
2022-09-29T12:02:37.014Z,97444.34
2022-09-29T12:06:02.041Z,97437.56
2022-09-29T12:09:28.557Z,97440.00
2022-09-29T12:12:47.371Z,97436.75
2022-09-29T12:16:01.502Z,97428.13
2022-09-29T12:19:14.537Z,97431.66
2022-09-29T12:22:24.609Z,97434.59
2022-09-29T12:25:38.947Z,97435.38
2022-09-29T12:28:55.352Z,97430.50
2022-09-29T12:32:17.128Z,97434.53
2022-09-29T12:35:35.745Z,97426.75
2022-09-29T12:38:48.307Z,97425.03
2022-09-29T12:42:18.066Z,97427.66
2022-09-29T12:45:35.184Z,97424.53
2022-09-29T12:48:56.561Z,97421.56
2022-09-29T12:52:16.295Z,97416.16
2022-09-29T12:55:32.377Z,97418.66
2022-09-29T12:58:46.553Z,97421.78
2022-09-29T13:01:58.627Z,97425.16
2022-09-29T13:05:30.219Z,97425.53
2022-09-29T13:08:58.118Z,97425.47
2022-09-29T13:12:23.593Z,97429.81
2022-09-29T13:15:52.105Z,97428.09
2022-09-29T13:19:55.670Z,97434.47
2022-09-29T13:23:24.350Z,97429.78
2022-09-29T13:26:49.318Z,97423.97
2022-09-29T13:30:06.770Z,97436.47
2022-09-29T13:33:23.308Z,97442.09
2022-09-29T13:36:36.283Z,97446.97
2022-09-29T13:40:01.327Z,97460.50
2022-09-29T13:43:40.088Z,97466.53
2022-09-29T13:46:49.708Z,97482.06
2022-09-29T13:50:24.526Z,97489.41
2022-09-29T13:53:37.941Z,97500.44
2022-09-29T13:56:51.293Z,97499.28
2022-09-29T14:00:07.626Z,97503.19
2022-09-29T14:03:28.832Z,97505.72
2022-09-29T14:06:48.066Z,97521.00
2022-09-29T14:13:15.352Z,97542.94
2022-09-29T14:16:33.027Z,97534.53
2022-09-29T14:19:50.485Z,97546.81
2022-09-29T14:23:03.349Z,97536.06
2022-09-29T14:26:42.724Z,97533.91
2022-09-29T14:30:02.479Z,97544.25
2022-09-29T14:33:16.707Z,97549.84
2022-09-29T14:36:28.165Z,97554.22
2022-09-29T14:39:41.197Z,97545.09
2022-09-29T14:43:03.692Z,97551.44
2022-09-29T14:46:45.337Z,97553.53
2022-09-29T14:50:20.846Z,97546.09
2022-09-29T14:53:47.148Z,97540.56
2022-09-29T14:57:08.156Z,97539.09
2022-09-29T15:00:20.251Z,97547.75
2022-09-29T15:03:35.587Z,97545.97
2022-09-29T15:06:48.107Z,97550.16
2022-09-29T15:09:59.715Z,97546.06
2022-09-29T15:13:20.082Z,97548.69
2022-09-29T15:16:41.649Z,97551.94
2022-09-29T15:20:01.883Z,97546.56
2022-09-29T15:23:31.087Z,97546.63
2022-09-29T15:26:41.831Z,97554.50
2022-09-29T15:29:56.494Z,97552.28
2022-09-29T15:33:19.800Z,97556.22
2022-09-29T15:36:36.097Z,97558.25
2022-09-29T15:39:51.633Z,97557.34
2022-09-29T15:43:01.801Z,97561.75
2022-09-29T15:46:19.551Z,97560.41
2022-09-29T15:49:30.850Z,97567.22
2022-09-29T15:52:41.792Z,97568.69
2022-09-29T15:55:53.274Z,97564.09
2022-09-29T15:59:06.233Z,97568.34
2022-09-29T16:02:21.994Z,97570.91
2022-09-29T16:05:34.191Z,97577.66
2022-09-29T16:08:50.206Z,97582.97
2022-09-29T16:12:07.445Z,97586.66
2022-09-29T16:15:25.793Z,97585.69
2022-09-29T16:18:42.297Z,97595.44
2022-09-29T16:21:53.884Z,97606.25
2022-09-29T16:25:21.664Z,97604.84
2022-09-29T16:28:31.669Z,97604.13
2022-09-29T16:31:43.045Z,97610.88
2022-09-29T16:34:52.636Z,97619.53
2022-09-29T16:38:03.013Z,97619.53
2022-09-29T16:41:27.553Z,97627.16
2022-09-29T16:44:44.074Z,97625.91
2022-09-29T16:47:53.998Z,97632.59
2022-09-29T16:51:27.763Z,97634.34
2022-09-29T16:54:44.116Z,97630.28
2022-09-29T16:57:58.787Z,97626.81
2022-09-29T17:01:12.894Z,97637.78
2022-09-29T17:04:23.894Z,97636.03
2022-09-29T17:07:40.948Z,97646.88
2022-09-29T17:10:52.543Z,97639.84
2022-09-29T17:14:08.671Z,97641.47
2022-09-29T17:17:23.601Z,97638.72
2022-09-29T17:20:35.676Z,97643.53
2022-09-29T17:23:47.413Z,97639.72
2022-09-29T17:27:09.106Z,97650.59
2022-09-29T17:30:25.756Z,97639.19
2022-09-29T17:33:39.592Z,97644.84
2022-09-29T17:36:52.885Z,97661.66
2022-09-29T17:40:05.952Z,97663.97
2022-09-29T17:43:18.986Z,97662.81
2022-09-29T17:46:31.538Z,97676.22
2022-09-29T17:49:43.246Z,97680.31
2022-09-29T17:52:55.291Z,97686.03
2022-09-29T17:56:07.421Z,97684.91
2022-09-29T17:59:18.614Z,97689.75
2022-09-29T18:02:31.545Z,97688.78
2022-09-29T18:05:45.794Z,97696.19
2022-09-29T18:09:02.279Z,97697.41
2022-09-29T18:12:15.043Z,97700.38
2022-09-29T18:15:34.671Z,97689.75
2022-09-29T18:18:48.494Z,97698.06
2022-09-29T18:22:06.640Z,97695.94
2022-09-29T18:25:26.002Z,97709.16
2022-09-29T18:28:39.739Z,97705.22
2022-09-29T18:32:09.870Z,97703.97
2022-09-29T18:35:25.413Z,97711.38
2022-09-29T18:38:40.409Z,97719.06
2022-09-29T18:41:56.908Z,97724.06
2022-09-29T18:45:17.489Z,97726.56
2022-09-29T18:48:31.102Z,97726.16
2022-09-29T18:51:44.998Z,97742.22
2022-09-29T18:54:59.741Z,97743.09
2022-09-29T18:58:14.904Z,97750.03
2022-09-29T19:01:28.824Z,97754.94
2022-09-29T19:04:43.147Z,97758.97
2022-09-29T19:08:00.574Z,97757.53
2022-09-29T19:11:19.357Z,97774.66
2022-09-29T19:14:35.712Z,97774.47
2022-09-29T19:17:49.106Z,97779.16
2022-09-29T19:21:01.678Z,97783.50
2022-09-29T19:24:15.517Z,97788.28
2022-09-29T19:27:32.708Z,97794.69
2022-09-29T19:30:45.167Z,97803.91
2022-09-29T19:33:58.100Z,97809.03
2022-09-29T19:37:09.065Z,97813.53
2022-09-29T19:40:24.516Z,97808.03
2022-09-29T19:43:36.105Z,97810.38
2022-09-29T19:46:46.467Z,97815.72
2022-09-29T19:50:13.558Z,97830.06
